createdAt,value
2022-08-22T00:02:00.854Z,13.31
2022-08-22T00:02:46.390Z,15.24
2022-08-22T00:02:55.895Z,13.26
2022-08-22T00:03:07.955Z,13.33
2022-08-22T00:07:40.931Z,13.32
2022-08-22T00:12:50.905Z,13.30
2022-08-22T00:18:05.847Z,13.25
2022-08-22T00:23:30.145Z,13.27
2022-08-22T00:28:35.854Z,13.19
2022-08-22T00:33:59.682Z,13.15
2022-08-22T00:39:20.289Z,13.02
2022-08-22T00:45:01.057Z,12.98
2022-08-22T00:50:32.828Z,12.95
2022-08-22T00:55:52.994Z,13.01
2022-08-22T01:01:02.844Z,12.97
2022-08-22T01:06:24.168Z,12.89
2022-08-22T01:11:32.603Z,12.77
2022-08-22T01:16:34.705Z,12.71
2022-08-22T01:21:45.833Z,12.65
2022-08-22T01:26:57.441Z,12.72
2022-08-22T01:32:37.231Z,12.79
2022-08-22T01:37:43.650Z,12.85
2022-08-22T01:43:06.350Z,12.86
2022-08-22T01:48:24.985Z,12.89
2022-08-22T01:53:41.154Z,12.89
2022-08-22T01:58:53.687Z,12.90
2022-08-22T02:04:15.739Z,12.95
2022-08-22T02:09:20.804Z,12.91
2022-08-22T02:14:32.048Z,12.74
2022-08-22T02:19:58.164Z,12.71
2022-08-22T02:25:13.193Z,12.73
2022-08-22T02:30:21.806Z,12.82
2022-08-22T02:35:32.713Z,12.92
2022-08-22T02:41:06.485Z,13.03
2022-08-22T02:46:42.453Z,13.08
2022-08-22T02:52:10.951Z,12.96
2022-08-22T02:57:29.963Z,13.00
2022-08-22T03:02:39.855Z,12.81
2022-08-22T03:07:49.435Z,12.66
2022-08-22T03:13:07.863Z,12.44
2022-08-22T03:18:12.661Z,12.37
2022-08-22T03:23:31.104Z,12.38
2022-08-22T03:29:12.475Z,12.33
2022-08-22T03:34:22.764Z,12.31
2022-08-22T03:39:51.078Z,12.42
2022-08-22T03:45:30.839Z,12.40
2022-08-22T03:50:55.693Z,12.37
2022-08-22T03:56:20.604Z,12.36
2022-08-22T04:01:57.867Z,12.37
2022-08-22T04:07:05.932Z,12.39
2022-08-22T04:12:58.277Z,12.60
2022-08-22T04:18:15.267Z,12.57
2022-08-22T04:23:26.558Z,12.60
2022-08-22T04:28:36.431Z,12.76
2022-08-22T04:34:19.161Z,12.85
2022-08-22T04:40:15.272Z,12.95
2022-08-22T04:45:24.099Z,13.08
2022-08-22T04:50:32.557Z,13.20
2022-08-22T04:56:11.628Z,13.42
2022-08-22T05:01:18.378Z,13.55
2022-08-22T05:06:25.285Z,13.65
2022-08-22T05:11:29.547Z,13.72
2022-08-22T05:16:38.048Z,13.83
2022-08-22T05:21:42.799Z,13.93
2022-08-22T05:26:50.357Z,14.02
2022-08-22T05:32:05.696Z,14.13
2022-08-22T05:37:11.809Z,14.22
2022-08-22T05:42:24.313Z,14.22
2022-08-22T05:47:41.945Z,14.37
2022-08-22T05:52:50.542Z,14.63
2022-08-22T05:58:34.660Z,14.88
2022-08-22T06:03:45.981Z,15.06
2022-08-22T06:09:21.500Z,15.23
2022-08-22T06:14:47.464Z,15.37
2022-08-22T06:19:53.426Z,15.60
2022-08-22T06:24:59.591Z,15.80
2022-08-22T06:30:04.105Z,15.89
2022-08-22T06:35:21.713Z,16.05
2022-08-22T06:40:25.348Z,16.22
2022-08-22T06:45:32.713Z,16.39
2022-08-22T06:50:38.045Z,16.51
2022-08-22T06:55:46.649Z,16.54
2022-08-22T07:01:05.181Z,16.63
2022-08-22T07:06:22.907Z,16.65
2022-08-22T07:11:34.691Z,16.77
2022-08-22T07:16:39.584Z,16.94
2022-08-22T07:21:46.103Z,17.14
2022-08-22T07:27:24.521Z,17.32
2022-08-22T07:32:44.903Z,17.59
2022-08-22T07:37:59.256Z,18.05
2022-08-22T07:43:13.538Z,18.54
2022-08-22T07:48:53.393Z,18.70
2022-08-22T07:54:07.109Z,18.99
2022-08-22T07:59:17.675Z,19.13
2022-08-22T08:04:26.604Z,19.03
2022-08-22T08:09:33.994Z,19.02
2022-08-22T08:14:40.133Z,19.19
2022-08-22T08:19:44.022Z,19.32
2022-08-22T08:24:48.425Z,19.43
2022-08-22T08:30:02.470Z,19.82
2022-08-22T08:35:17.080Z,19.88
2022-08-22T08:40:39.133Z,20.44
2022-08-22T08:46:26.266Z,20.76
2022-08-22T08:52:05.463Z,21.65
2022-08-22T08:57:45.287Z,23.18
2022-08-22T09:03:07.165Z,24.53
2022-08-22T09:08:28.037Z,24.41
2022-08-22T09:13:48.025Z,23.62
2022-08-22T09:19:00.345Z,22.83
2022-08-22T09:24:08.358Z,23.20
2022-08-22T09:29:29.105Z,23.61
2022-08-22T09:34:47.673Z,23.36
2022-08-22T09:45:40.361Z,22.78
2022-08-22T09:51:28.737Z,23.19
2022-08-22T09:57:02.752Z,23.78
2022-08-22T10:02:44.026Z,24.24
2022-08-22T10:08:14.243Z,24.46
2022-08-22T10:13:52.887Z,24.96
2022-08-22T10:19:30.614Z,25.07
2022-08-22T10:24:51.199Z,25.42
2022-08-22T10:30:13.771Z,25.47
2022-08-22T10:35:51.877Z,25.40
2022-08-22T10:41:32.228Z,25.53
2022-08-22T10:46:46.229Z,25.31
2022-08-22T10:52:15.748Z,24.59
2022-08-22T10:57:28.587Z,24.09
2022-08-22T11:02:42.414Z,23.86
2022-08-22T11:08:25.554Z,24.04
2022-08-22T11:13:49.740Z,23.88
2022-08-22T11:19:15.253Z,24.05
2022-08-22T11:24:56.324Z,24.44
2022-08-22T11:30:18.818Z,26.13
2022-08-22T11:35:31.884Z,27.47
2022-08-22T11:41:09.757Z,27.92
2022-08-22T11:46:20.732Z,27.69
2022-08-22T11:51:44.560Z,29.01
2022-08-22T11:56:54.364Z,28.66
2022-08-22T12:02:03.983Z,29.57
2022-08-22T12:07:28.259Z,29.07
2022-08-22T12:12:55.917Z,29.26
2022-08-22T12:18:35.973Z,28.96
2022-08-22T12:24:32.199Z,28.34
2022-08-22T12:29:49.661Z,27.77
2022-08-22T12:35:31.779Z,27.82
2022-08-22T12:40:52.547Z,27.59
2022-08-22T12:46:15.077Z,27.47
2022-08-22T12:51:25.989Z,27.52
2022-08-22T12:57:24.401Z,27.46
2022-08-22T13:02:34.476Z,27.48
2022-08-22T13:07:39.257Z,28.24
2022-08-22T13:12:51.407Z,27.58
2022-08-22T13:17:55.375Z,27.49
2022-08-22T13:23:00.549Z,27.59
2022-08-22T13:28:10.925Z,28.07
2022-08-22T13:33:35.535Z,27.91
2022-08-22T13:38:46.310Z,27.47
2022-08-22T13:44:22.895Z,27.51
2022-08-22T13:49:39.306Z,27.86
2022-08-22T13:54:54.588Z,27.72
2022-08-22T14:00:28.935Z,28.44
2022-08-22T14:05:36.627Z,28.36
2022-08-22T14:10:45.494Z,29.11
2022-08-22T14:15:48.194Z,28.51
2022-08-22T14:21:25.603Z,27.89
2022-08-22T14:26:37.530Z,28.03
2022-08-22T14:31:57.335Z,28.01
2022-08-22T14:37:04.381Z,27.17
2022-08-22T14:42:16.203Z,26.80
2022-08-22T14:47:55.105Z,26.91
2022-08-22T14:53:09.667Z,27.12
2022-08-22T14:58:26.487Z,26.95
2022-08-22T15:03:34.032Z,27.04
2022-08-22T15:08:46.254Z,26.84
2022-08-22T15:14:00.575Z,27.04
2022-08-22T15:19:20.651Z,27.05
2022-08-22T15:24:23.057Z,27.06
2022-08-22T15:29:32.525Z,26.97
2022-08-22T15:34:41.030Z,27.06
2022-08-22T15:40:07.385Z,27.44
2022-08-22T15:45:33.699Z,27.66
2022-08-22T15:50:39.381Z,27.20
2022-08-22T15:56:10.170Z,27.12
2022-08-22T16:01:20.053Z,27.10
2022-08-22T16:06:52.640Z,27.08
2022-08-22T16:11:58.345Z,27.04
2022-08-22T16:17:06.192Z,27.79
2022-08-22T16:22:09.630Z,27.58
2022-08-22T16:27:19.505Z,26.67
2022-08-22T16:32:27.071Z,25.95
2022-08-22T16:37:48.744Z,25.89
2022-08-22T16:43:12.886Z,25.29
2022-08-22T16:48:32.133Z,24.79
2022-08-22T16:53:45.798Z,24.49
2022-08-22T16:59:22.578Z,24.10
2022-08-22T17:05:15.264Z,24.03
2022-08-22T17:10:50.591Z,23.85
2022-08-22T17:16:22.601Z,23.93
2022-08-22T17:21:50.640Z,24.14
2022-08-22T17:26:57.195Z,24.07
2022-08-22T17:32:25.459Z,23.94
2022-08-22T17:37:52.559Z,23.84
2022-08-22T17:43:06.673Z,23.82
2022-08-22T17:48:34.291Z,23.52
2022-08-22T17:53:58.887Z,23.16
2022-08-22T17:59:09.056Z,23.05
2022-08-22T18:04:22.818Z,22.85
2022-08-22T18:09:39.822Z,22.59
2022-08-22T18:14:51.836Z,22.32
2022-08-22T18:20:21.332Z,21.91
2022-08-22T18:25:29.319Z,21.50
2022-08-22T18:30:38.298Z,21.07
2022-08-22T18:35:55.335Z,20.66
2022-08-22T18:41:23.041Z,20.26
2022-08-22T18:46:28.179Z,19.97
2022-08-22T18:51:33.118Z,19.77
2022-08-22T18:56:45.522Z,19.66
2022-08-22T19:01:50.705Z,19.54
2022-08-22T19:07:31.425Z,19.40
2022-08-22T19:13:12.332Z,19.31
2022-08-22T19:18:58.647Z,19.28
2022-08-22T19:24:01.794Z,19.12
2022-08-22T19:29:15.244Z,19.04
2022-08-22T19:34:26.534Z,18.91
2022-08-22T19:39:41.201Z,18.80
2022-08-22T19:44:53.730Z,18.67
2022-08-22T19:50:14.799Z,18.44
2022-08-22T19:55:38.132Z,18.29
2022-08-22T20:00:58.539Z,18.17
2022-08-22T20:06:42.880Z,18.02
2022-08-22T20:12:15.255Z,17.89
2022-08-22T20:17:24.086Z,17.74
2022-08-22T20:22:38.413Z,17.57
2022-08-22T20:27:47.796Z,17.45
2022-08-22T20:32:54.376Z,17.33
2022-08-22T20:38:07.271Z,17.35
2022-08-22T20:43:28.287Z,17.33
2022-08-22T20:48:39.462Z,17.43
2022-08-22T20:53:42.324Z,17.51
2022-08-22T20:58:44.504Z,17.53
2022-08-22T21:03:50.599Z,17.29
2022-08-22T21:09:13.692Z,17.14
2022-08-22T21:14:24.799Z,17.02
2022-08-22T21:19:29.310Z,16.94
2022-08-22T21:24:31.468Z,16.80
2022-08-22T21:29:42.904Z,16.63
2022-08-22T21:34:48.248Z,16.45
2022-08-22T21:39:58.200Z,16.21
2022-08-22T21:45:07.137Z,16.02
2022-08-22T21:50:28.785Z,15.72
2022-08-22T21:55:34.418Z,15.57
2022-08-22T22:00:49.433Z,15.41
2022-08-22T22:05:53.345Z,15.55
2022-08-22T22:10:59.511Z,15.45
2022-08-22T22:16:01.870Z,15.39
2022-08-22T22:21:04.893Z,15.42
2022-08-22T22:26:07.100Z,15.32
2022-08-22T22:31:09.714Z,15.32
2022-08-22T22:36:19.856Z,15.24
2022-08-22T22:41:22.518Z,15.13
2022-08-22T22:46:25.076Z,14.97
2022-08-22T22:51:27.308Z,14.72
2022-08-22T22:56:29.455Z,14.67
2022-08-22T23:01:31.624Z,14.68
2022-08-22T23:06:34.712Z,14.66
2022-08-22T23:11:36.722Z,14.56
2022-08-22T23:16:40.488Z,14.56
2022-08-22T23:21:44.990Z,14.55
2022-08-22T23:26:47.195Z,14.52
2022-08-22T23:31:55.114Z,14.56
2022-08-22T23:36:59.426Z,14.50
2022-08-22T23:42:02.377Z,14.43
2022-08-22T23:47:06.332Z,14.31
2022-08-22T23:52:10.574Z,14.25
2022-08-22T23:57:12.871Z,14.24
